createdAt,value
2022-08-21T00:02:03.763Z,12.55
2022-08-21T00:04:57.394Z,8.48
2022-08-21T00:07:48.674Z,13.32
2022-08-21T00:10:44.964Z,9.60
2022-08-21T00:13:32.867Z,10.93
2022-08-21T00:16:20.899Z,10.75
2022-08-21T00:21:56.719Z,12.85
2022-08-21T00:24:43.137Z,8.80
2022-08-21T00:27:29.813Z,11.57
2022-08-21T00:30:22.927Z,12.60
2022-08-21T00:33:17.359Z,10.80
2022-08-21T00:36:04.591Z,11.38
2022-08-21T00:38:51.733Z,16.25
2022-08-21T00:41:41.719Z,11.47
2022-08-21T00:44:29.675Z,11.55
2022-08-21T00:47:20.858Z,8.55
2022-08-21T00:50:10.655Z,12.40
2022-08-21T00:53:08.364Z,10.10
2022-08-21T00:55:56.599Z,11.50
2022-08-21T00:58:44.433Z,13.63
2022-08-21T01:01:32.974Z,11.30
2022-08-21T01:04:19.962Z,13.90
2022-08-21T01:07:09.379Z,12.88
2022-08-21T01:09:56.842Z,9.85
2022-08-21T01:12:46.799Z,14.20
2022-08-21T01:15:41.008Z,13.70
2022-08-21T01:18:28.983Z,11.48
2022-08-21T01:21:27.909Z,15.02
2022-08-21T01:27:03.478Z,14.40
2022-08-21T01:29:53.836Z,14.40
2022-08-21T01:32:40.902Z,14.57
2022-08-21T01:35:29.707Z,14.05
2022-08-21T01:38:16.702Z,16.08
2022-08-21T01:41:03.287Z,20.08
2022-08-21T01:43:49.371Z,16.52
2022-08-21T01:46:36.488Z,16.58
2022-08-21T01:49:23.295Z,12.60
2022-08-21T01:52:10.446Z,13.55
2022-08-21T01:54:57.279Z,11.82
2022-08-21T01:57:44.406Z,13.95
2022-08-21T02:00:30.420Z,15.45
2022-08-21T02:03:26.310Z,12.18
2022-08-21T02:06:22.308Z,10.73
2022-08-21T02:09:11.415Z,15.60
2022-08-21T02:11:57.658Z,10.38
2022-08-21T02:14:44.150Z,11.68
2022-08-21T02:17:39.473Z,15.25
2022-08-21T02:20:32.492Z,13.20
2022-08-21T02:23:20.000Z,17.02
2022-08-21T02:26:13.550Z,11.63
2022-08-21T02:29:00.494Z,13.77
2022-08-21T02:31:47.185Z,11.55
2022-08-21T02:34:36.023Z,11.88
2022-08-21T02:37:29.329Z,15.32
2022-08-21T02:40:18.920Z,11.98
2022-08-21T02:43:10.465Z,13.15
2022-08-21T02:45:59.233Z,13.55
2022-08-21T02:48:47.368Z,12.63
2022-08-21T02:51:33.576Z,14.55
2022-08-21T02:54:20.496Z,11.57
2022-08-21T02:57:06.615Z,13.10
2022-08-21T02:59:54.188Z,12.50
2022-08-21T03:02:41.333Z,11.50
2022-08-21T03:05:30.114Z,13.93
2022-08-21T03:08:16.277Z,11.40
2022-08-21T03:11:02.734Z,11.93
2022-08-21T03:13:51.160Z,12.35
2022-08-21T03:16:41.201Z,13.30
2022-08-21T03:19:27.707Z,13.40
2022-08-21T03:22:14.100Z,9.70
2022-08-21T03:25:02.252Z,13.48
2022-08-21T03:27:59.211Z,12.70
2022-08-21T03:30:53.151Z,14.48
2022-08-21T03:33:39.389Z,12.65
2022-08-21T03:36:27.016Z,13.15
2022-08-21T03:39:15.227Z,12.10
2022-08-21T03:42:04.340Z,15.75
2022-08-21T03:44:53.470Z,14.57
2022-08-21T03:47:53.219Z,10.43
2022-08-21T03:50:50.345Z,13.55
2022-08-21T03:53:37.483Z,14.00
2022-08-21T03:56:28.005Z,11.63
2022-08-21T03:59:18.403Z,14.57
2022-08-21T04:02:08.301Z,15.48
2022-08-21T04:04:55.145Z,15.63
2022-08-21T04:07:42.322Z,11.20
2022-08-21T04:10:35.284Z,11.82
2022-08-21T04:13:30.291Z,13.32
2022-08-21T04:16:20.842Z,11.90
2022-08-21T04:19:09.078Z,11.25
2022-08-21T04:22:00.609Z,14.73
2022-08-21T04:24:49.428Z,13.32
2022-08-21T04:27:38.247Z,11.63
2022-08-21T04:30:27.596Z,15.55
2022-08-21T04:33:15.511Z,13.02
2022-08-21T04:36:07.129Z,12.27
2022-08-21T04:38:57.045Z,12.82
2022-08-21T04:41:46.425Z,14.48
2022-08-21T04:44:34.275Z,12.60
2022-08-21T04:47:22.265Z,11.70
2022-08-21T04:50:57.409Z,14.68
2022-08-21T04:53:56.251Z,16.35
2022-08-21T04:56:47.056Z,13.95
2022-08-21T04:59:45.942Z,10.90
2022-08-21T05:02:34.968Z,10.57
2022-08-21T05:05:30.310Z,11.15
2022-08-21T05:08:24.468Z,10.90
2022-08-21T05:11:12.126Z,11.00
2022-08-21T05:14:05.982Z,10.15
2022-08-21T05:16:53.244Z,8.10
2022-08-21T05:19:43.106Z,7.40
2022-08-21T05:22:30.267Z,9.65
2022-08-21T05:25:17.545Z,7.78
2022-08-21T05:28:13.183Z,6.85
2022-08-21T05:31:01.183Z,6.50
2022-08-21T05:33:52.494Z,6.82
2022-08-21T05:36:47.178Z,8.15
2022-08-21T05:40:20.082Z,6.55
2022-08-21T05:42:44.648Z,5.40
2022-08-21T05:48:30.929Z,5.45
2022-08-21T05:51:17.962Z,5.15
2022-08-21T05:54:04.528Z,4.72
2022-08-21T05:56:51.039Z,4.15
2022-08-21T05:59:38.967Z,3.80
2022-08-21T06:02:26.390Z,4.32
2022-08-21T06:05:14.046Z,4.90
2022-08-21T06:08:09.128Z,5.32
2022-08-21T06:10:57.964Z,4.20
2022-08-21T06:13:45.157Z,5.07
2022-08-21T06:16:33.999Z,6.03
2022-08-21T06:19:21.113Z,5.03
2022-08-21T06:22:11.155Z,5.15
2022-08-21T06:25:08.077Z,4.45
2022-08-21T06:28:02.085Z,4.75
2022-08-21T06:30:49.915Z,5.20
2022-08-21T06:33:37.061Z,5.07
2022-08-21T06:36:26.453Z,4.85
2022-08-21T06:39:16.419Z,5.70
2022-08-21T06:42:19.307Z,5.85
2022-08-21T06:45:07.015Z,4.57
2022-08-21T06:47:54.070Z,6.18
2022-08-21T06:50:43.161Z,4.13
2022-08-21T06:53:30.437Z,4.65
2022-08-21T06:56:17.135Z,4.10
2022-08-21T06:59:04.104Z,4.07
2022-08-21T07:01:54.159Z,4.88
2022-08-21T07:04:41.186Z,4.47
2022-08-21T07:07:28.970Z,4.47
2022-08-21T07:10:15.876Z,3.53
2022-08-21T07:13:09.128Z,4.30
2022-08-21T07:16:01.633Z,2.90
2022-08-21T07:18:50.835Z,4.32
2022-08-21T07:21:37.979Z,4.38
2022-08-21T07:24:24.861Z,3.42
2022-08-21T07:27:11.949Z,4.65
2022-08-21T07:29:59.134Z,4.63
2022-08-21T07:32:46.014Z,4.28
2022-08-21T07:35:34.342Z,5.25
2022-08-21T07:38:20.995Z,4.97
2022-08-21T07:41:29.575Z,4.20
2022-08-21T07:44:15.970Z,4.60
2022-08-21T07:47:02.784Z,3.92
2022-08-21T07:49:49.872Z,3.60
2022-08-21T07:52:36.704Z,4.03
2022-08-21T07:55:24.180Z,4.05
2022-08-21T07:58:10.823Z,6.03
2022-08-21T08:00:58.125Z,4.40
2022-08-21T08:03:46.493Z,3.83
2022-08-21T08:06:34.573Z,5.03
2022-08-21T08:09:20.834Z,4.25
2022-08-21T08:12:08.492Z,5.40
2022-08-21T08:14:55.067Z,4.32
2022-08-21T08:17:41.791Z,6.47
2022-08-21T08:20:30.742Z,3.85
2022-08-21T08:23:23.942Z,4.10
2022-08-21T08:26:10.803Z,3.50
2022-08-21T08:28:57.942Z,3.55
2022-08-21T08:31:45.923Z,4.60
2022-08-21T08:34:35.866Z,3.75
2022-08-21T08:37:25.328Z,4.82
2022-08-21T08:40:54.287Z,3.35
2022-08-21T08:43:57.988Z,2.85
2022-08-21T08:46:53.628Z,4.35
2022-08-21T08:50:20.669Z,2.92
2022-08-21T08:53:29.930Z,4.05
2022-08-21T08:56:30.317Z,3.65
2022-08-21T08:59:20.880Z,3.47
2022-08-21T09:02:08.664Z,5.00
2022-08-21T09:04:55.941Z,2.70
2022-08-21T09:08:18.577Z,4.55
2022-08-21T09:11:17.075Z,3.03
2022-08-21T09:14:13.019Z,3.63
2022-08-21T09:17:12.368Z,4.07
2022-08-21T09:20:45.554Z,3.50
2022-08-21T09:23:37.413Z,3.08
2022-08-21T09:26:29.303Z,3.53
2022-08-21T09:29:24.066Z,3.10
2022-08-21T09:32:18.042Z,4.95
2022-08-21T09:35:14.941Z,3.33
2022-08-21T09:38:12.405Z,4.20
2022-08-21T09:41:07.707Z,4.40
2022-08-21T09:43:55.701Z,3.72
2022-08-21T09:46:55.830Z,7.38
2022-08-21T09:49:50.375Z,2.95
2022-08-21T09:53:07.991Z,4.65
2022-08-21T09:56:25.445Z,4.25
2022-08-21T09:59:20.790Z,3.05
2022-08-21T10:02:27.568Z,4.82
2022-08-21T10:05:26.995Z,3.45
2022-08-21T10:08:37.006Z,4.38
2022-08-21T10:11:34.750Z,4.88
2022-08-21T10:14:45.888Z,3.40
2022-08-21T10:17:37.581Z,6.72
2022-08-21T10:20:35.491Z,3.88
2022-08-21T10:23:28.753Z,3.65
2022-08-21T10:26:37.424Z,3.28
2022-08-21T10:29:45.555Z,4.55
2022-08-21T10:32:51.730Z,3.70
2022-08-21T10:35:46.193Z,3.00
2022-08-21T10:38:55.376Z,4.88
2022-08-21T10:42:12.781Z,3.15
2022-08-21T10:45:12.568Z,3.08
2022-08-21T10:48:10.017Z,4.70
2022-08-21T10:51:16.737Z,6.63
2022-08-21T10:54:31.547Z,4.28
2022-08-21T10:57:32.363Z,5.28
2022-08-21T11:00:25.873Z,5.78
2022-08-21T11:03:17.009Z,4.05
2022-08-21T11:06:14.774Z,4.80
2022-08-21T11:09:16.419Z,4.75
2022-08-21T11:12:27.688Z,3.17
2022-08-21T11:15:29.005Z,4.55
2022-08-21T11:18:32.611Z,4.95
2022-08-21T11:21:46.696Z,4.03
2022-08-21T11:24:45.550Z,5.40
2022-08-21T11:27:47.036Z,4.43
2022-08-21T11:31:00.476Z,6.13
2022-08-21T11:33:56.597Z,5.22
2022-08-21T11:36:55.357Z,3.83
2022-08-21T11:39:50.222Z,7.00
2022-08-21T11:42:56.597Z,4.43
2022-08-21T11:45:51.549Z,5.18
2022-08-21T11:48:39.308Z,4.15
2022-08-21T11:51:54.516Z,3.78
2022-08-21T11:54:51.022Z,3.63
2022-08-21T11:57:51.614Z,5.80
2022-08-21T12:00:59.665Z,3.67
2022-08-21T12:04:22.489Z,5.28
2022-08-21T12:07:33.432Z,5.82
2022-08-21T12:10:33.429Z,4.93
2022-08-21T12:13:40.181Z,5.50
2022-08-21T12:16:41.592Z,5.70
2022-08-21T12:19:32.260Z,3.45
2022-08-21T12:22:18.277Z,6.90
2022-08-21T12:25:10.417Z,4.50
2022-08-21T12:28:09.483Z,4.57
2022-08-21T12:30:58.197Z,7.63
2022-08-21T12:33:52.449Z,5.88
2022-08-21T12:36:51.359Z,3.35
2022-08-21T12:39:40.543Z,3.70
2022-08-21T12:42:41.226Z,3.13
2022-08-21T12:45:34.427Z,2.95
2022-08-21T12:48:32.368Z,2.50
2022-08-21T12:51:37.698Z,5.63
2022-08-21T12:54:30.469Z,5.55
2022-08-21T12:57:24.289Z,5.15
2022-08-21T13:00:15.304Z,3.75
2022-08-21T13:03:02.271Z,5.50
2022-08-21T13:05:49.352Z,3.70
2022-08-21T13:08:40.895Z,4.85
2022-08-21T13:11:33.790Z,5.75
2022-08-21T13:14:35.366Z,5.57
2022-08-21T13:17:35.256Z,7.15
2022-08-21T13:20:29.168Z,3.55
2022-08-21T13:23:34.514Z,3.15
2022-08-21T13:26:22.512Z,4.25
2022-08-21T13:29:12.225Z,4.07
2022-08-21T13:32:03.483Z,3.55
2022-08-21T13:34:56.030Z,3.60
2022-08-21T13:37:44.217Z,4.85
2022-08-21T13:40:45.293Z,3.92
2022-08-21T13:43:35.101Z,2.88
2022-08-21T13:46:23.492Z,4.05
2022-08-21T13:49:11.039Z,4.03
2022-08-21T13:51:57.332Z,3.30
2022-08-21T13:54:45.947Z,4.78
2022-08-21T13:57:34.416Z,4.72
2022-08-21T14:00:28.058Z,4.18
2022-08-21T14:03:36.254Z,2.70
2022-08-21T14:06:24.294Z,4.15
2022-08-21T14:09:26.046Z,2.08
2022-08-21T14:12:26.246Z,5.03
2022-08-21T14:15:19.623Z,4.55
2022-08-21T14:18:18.850Z,3.15
2022-08-21T14:21:10.285Z,2.17
2022-08-21T14:24:05.949Z,8.85
2022-08-21T14:26:56.049Z,4.25
2022-08-21T14:29:44.535Z,4.15
2022-08-21T14:32:39.001Z,5.20
2022-08-21T14:35:32.220Z,2.72
2022-08-21T14:38:26.054Z,6.75
2022-08-21T14:41:24.830Z,3.63
2022-08-21T14:44:11.281Z,4.43
2022-08-21T14:46:59.302Z,4.28
2022-08-21T14:49:49.949Z,3.88
2022-08-21T14:52:37.201Z,4.85
2022-08-21T14:55:24.354Z,2.92
2022-08-21T14:58:11.221Z,3.20
2022-08-21T15:00:59.163Z,4.13
2022-08-21T15:03:47.013Z,3.25
2022-08-21T15:06:34.939Z,5.80
2022-08-21T15:09:21.133Z,3.53
2022-08-21T15:12:09.031Z,2.55
2022-08-21T15:14:56.067Z,3.70
2022-08-21T15:17:47.729Z,4.13
2022-08-21T15:20:35.098Z,4.28
2022-08-21T15:23:23.047Z,3.17
2022-08-21T15:26:10.056Z,3.17
2022-08-21T15:29:01.212Z,3.22
2022-08-21T15:31:58.078Z,3.33
2022-08-21T15:34:46.967Z,4.22
2022-08-21T15:37:33.911Z,4.47
2022-08-21T15:40:21.036Z,2.92
2022-08-21T15:43:08.119Z,3.40
2022-08-21T15:45:55.398Z,4.00
2022-08-21T15:48:42.033Z,2.60
2022-08-21T15:51:29.066Z,3.05
2022-08-21T15:54:16.082Z,2.95
2022-08-21T15:57:03.108Z,3.10
2022-08-21T15:59:55.827Z,3.70
2022-08-21T16:02:47.940Z,5.07
2022-08-21T16:05:34.852Z,3.58
2022-08-21T16:08:22.490Z,4.32
2022-08-21T16:11:08.814Z,2.38
2022-08-21T16:13:57.078Z,3.00
2022-08-21T16:16:44.420Z,3.63
2022-08-21T16:19:32.902Z,5.90
2022-08-21T16:22:19.813Z,3.10
2022-08-21T16:25:06.992Z,3.83
2022-08-21T16:27:59.319Z,4.03
2022-08-21T16:30:50.017Z,6.40
2022-08-21T16:33:48.795Z,3.78
2022-08-21T16:36:36.020Z,3.45
2022-08-21T16:39:22.760Z,3.63
2022-08-21T16:42:15.857Z,5.78
2022-08-21T16:45:10.883Z,3.53
2022-08-21T16:47:57.933Z,4.85
2022-08-21T16:50:49.118Z,3.95
2022-08-21T16:53:43.778Z,3.15
2022-08-21T16:56:31.048Z,3.67
2022-08-21T16:59:17.890Z,3.72
2022-08-21T17:02:05.798Z,2.70
2022-08-21T17:04:53.091Z,4.65
2022-08-21T17:07:40.125Z,3.33
2022-08-21T17:10:31.770Z,3.47
2022-08-21T17:13:22.753Z,3.50
2022-08-21T17:16:13.004Z,3.17
2022-08-21T17:19:00.741Z,4.40
2022-08-21T17:21:47.816Z,3.47
2022-08-21T17:24:38.062Z,4.55
2022-08-21T17:27:29.126Z,3.80
2022-08-21T17:30:16.810Z,4.63
2022-08-21T17:33:07.962Z,4.30
2022-08-21T17:35:54.847Z,6.60
2022-08-21T17:38:41.772Z,4.68
2022-08-21T17:41:28.731Z,5.07
2022-08-21T17:44:18.701Z,6.45
2022-08-21T17:47:14.928Z,3.45
2022-08-21T17:50:01.984Z,3.22
2022-08-21T17:52:49.097Z,4.68
2022-08-21T17:55:37.212Z,4.38
2022-08-21T17:58:28.657Z,5.18
2022-08-21T18:01:17.726Z,5.72
2022-08-21T18:04:07.659Z,4.82
2022-08-21T18:06:55.497Z,4.32
2022-08-21T18:09:41.571Z,7.00
2022-08-21T18:12:28.615Z,7.32
2022-08-21T18:15:16.465Z,5.28
2022-08-21T18:18:06.373Z,3.78
2022-08-21T18:20:53.980Z,3.75
2022-08-21T18:23:43.756Z,3.38
2022-08-21T18:29:28.124Z,3.65
2022-08-21T18:32:31.212Z,3.75
2022-08-21T18:35:18.327Z,6.32
2022-08-21T18:38:04.805Z,4.57
2022-08-21T18:40:55.888Z,6.03
2022-08-21T18:43:42.204Z,6.40
2022-08-21T18:46:29.921Z,5.63
2022-08-21T18:49:15.791Z,3.90
2022-08-21T18:52:03.249Z,6.80
2022-08-21T18:54:50.222Z,3.45
2022-08-21T18:57:37.780Z,5.57
2022-08-21T19:00:27.572Z,5.82
2022-08-21T19:03:15.901Z,4.88
2022-08-21T19:09:14.930Z,5.05
2022-08-21T19:12:03.135Z,5.35
2022-08-21T19:14:50.216Z,10.40
2022-08-21T19:17:40.019Z,4.80
2022-08-21T19:20:30.937Z,6.75
2022-08-21T19:23:17.949Z,4.88
2022-08-21T19:26:06.781Z,5.55
2022-08-21T19:28:59.628Z,3.65
2022-08-21T19:31:48.152Z,4.32
2022-08-21T19:34:36.210Z,4.47
2022-08-21T19:37:22.437Z,3.70
2022-08-21T19:40:09.972Z,4.93
2022-08-21T19:42:57.131Z,4.13
2022-08-21T19:45:46.816Z,6.55
2022-08-21T19:48:34.222Z,5.30
2022-08-21T19:51:21.457Z,3.70
2022-08-21T19:54:12.504Z,3.58
2022-08-21T19:56:59.845Z,5.25
2022-08-21T19:59:50.138Z,3.20
2022-08-21T20:02:37.085Z,5.13
2022-08-21T20:05:23.756Z,5.15
2022-08-21T20:11:22.855Z,2.75
2022-08-21T20:14:12.871Z,4.85
2022-08-21T20:17:10.443Z,3.22
2022-08-21T20:19:57.789Z,4.38
2022-08-21T20:22:44.761Z,3.30
2022-08-21T20:25:32.708Z,4.15
2022-08-21T20:28:20.717Z,3.35
2022-08-21T20:31:09.415Z,5.38
2022-08-21T20:33:55.979Z,3.60
2022-08-21T20:36:42.308Z,2.80
2022-08-21T20:39:30.152Z,4.32
2022-08-21T20:42:16.595Z,3.00
2022-08-21T20:45:08.389Z,4.45
2022-08-21T20:47:58.954Z,2.95
2022-08-21T20:50:49.332Z,2.45
2022-08-21T20:54:12.922Z,2.70
2022-08-21T20:57:22.072Z,5.05
2022-08-21T21:00:14.888Z,6.30
2022-08-21T21:03:09.980Z,5.28
2022-08-21T21:06:01.981Z,2.53
2022-08-21T21:09:16.782Z,3.42
2022-08-21T21:12:05.742Z,2.38
2022-08-21T21:14:55.934Z,3.30
2022-08-21T21:18:07.264Z,2.57
2022-08-21T21:21:08.668Z,3.75
2022-08-21T21:24:07.573Z,3.65
2022-08-21T21:26:54.919Z,1.58
2022-08-21T21:29:53.916Z,2.63
2022-08-21T21:32:41.817Z,2.72
2022-08-21T21:35:36.557Z,2.55
2022-08-21T21:38:33.362Z,3.30
2022-08-21T21:41:54.292Z,3.78
2022-08-21T21:45:07.556Z,2.15
2022-08-21T21:48:23.673Z,6.38
2022-08-21T21:51:16.708Z,4.10
2022-08-21T21:54:17.519Z,3.45
2022-08-21T21:57:16.253Z,7.13
2022-08-21T22:00:18.244Z,4.22
2022-08-21T22:03:15.690Z,6.05
2022-08-21T22:06:20.432Z,6.15
2022-08-21T22:09:16.727Z,3.35
2022-08-21T22:12:23.532Z,3.78
2022-08-21T22:15:11.918Z,2.83
2022-08-21T22:20:58.489Z,5.38
2022-08-21T22:23:48.413Z,3.17
2022-08-21T22:26:45.704Z,3.92
2022-08-21T22:29:49.851Z,5.80
2022-08-21T22:32:48.295Z,2.80
2022-08-21T22:35:39.580Z,3.38
2022-08-21T22:38:33.867Z,5.85
2022-08-21T22:41:28.690Z,2.53
2022-08-21T22:44:29.792Z,3.20
2022-08-21T22:47:22.605Z,4.38
2022-08-21T22:50:21.782Z,5.38
2022-08-21T22:53:10.444Z,5.50
2022-08-21T22:56:00.539Z,5.40
2022-08-21T22:58:57.988Z,4.38
2022-08-21T23:01:45.486Z,4.10
2022-08-21T23:04:31.767Z,4.57
2022-08-21T23:07:43.632Z,5.55
2022-08-21T23:10:37.744Z,3.28
2022-08-21T23:13:24.395Z,5.53
2022-08-21T23:16:28.706Z,5.28
2022-08-21T23:19:24.434Z,3.83
2022-08-21T23:22:29.668Z,3.42
2022-08-21T23:25:34.729Z,3.40
2022-08-21T23:28:55.363Z,5.57
2022-08-21T23:32:24.590Z,2.35
2022-08-21T23:35:21.468Z,9.80
2022-08-21T23:38:35.383Z,3.65
2022-08-21T23:41:39.493Z,4.00
2022-08-21T23:44:37.322Z,6.07
2022-08-21T23:47:30.298Z,5.22
2022-08-21T23:50:31.386Z,4.22
2022-08-21T23:53:33.789Z,3.92
2022-08-21T23:56:36.523Z,3.05
2022-08-21T23:59:33.433Z,3.72
